createdAt,value
2018-09-17T00:00:58.614Z,94.70
2018-09-17T00:03:26.819Z,94.60
2018-09-17T00:05:54.987Z,94.60
2018-09-17T00:08:23.143Z,94.70
2018-09-17T00:10:51.302Z,95.00
2018-09-17T00:13:19.711Z,94.60
2018-09-17T00:15:48.103Z,94.50
2018-09-17T00:18:16.267Z,94.50
2018-09-17T00:20:44.476Z,94.50
2018-09-17T00:23:12.898Z,94.60
2018-09-17T00:25:41.063Z,94.50
2018-09-17T00:28:09.896Z,94.90
2018-09-17T00:30:38.057Z,94.80
2018-09-17T00:33:06.671Z,95.00
2018-09-17T00:35:34.869Z,95.00
2018-09-17T00:38:03.047Z,94.90
2018-09-17T00:40:31.235Z,94.80
2018-09-17T00:42:59.414Z,94.90
2018-09-17T00:45:27.607Z,94.80
2018-09-17T00:47:55.789Z,95.20
2018-09-17T00:50:23.983Z,94.90
2018-09-17T00:52:52.170Z,94.70
2018-09-17T00:55:20.405Z,94.60
2018-09-17T00:57:48.648Z,94.70
2018-09-17T01:00:16.830Z,94.70
2018-09-17T01:02:45.254Z,94.80
2018-09-17T01:05:13.446Z,94.60
2018-09-17T01:07:41.627Z,94.70
2018-09-17T01:10:09.810Z,94.70
2018-09-17T01:12:37.998Z,94.40
2018-09-17T01:15:06.216Z,94.60
2018-09-17T01:17:34.397Z,94.50
2018-09-17T01:20:02.586Z,94.70
2018-09-17T01:22:30.779Z,94.80
2018-09-17T01:24:58.962Z,94.70
2018-09-17T01:27:27.166Z,94.90
2018-09-17T01:29:55.387Z,94.90
2018-09-17T01:32:23.711Z,94.80
2018-09-17T01:34:51.915Z,94.80
2018-09-17T01:37:20.389Z,94.70
2018-09-17T01:39:48.818Z,94.60
2018-09-17T01:42:17.023Z,94.50
2018-09-17T01:44:45.201Z,94.40
2018-09-17T01:47:13.390Z,94.60
2018-09-17T01:49:41.582Z,94.40
2018-09-17T01:52:09.767Z,94.40
2018-09-17T01:54:37.950Z,94.50
2018-09-17T01:57:06.142Z,94.40
2018-09-17T01:59:34.327Z,94.70
2018-09-17T02:02:02.514Z,94.60
2018-09-17T02:04:30.743Z,94.60
2018-09-17T02:06:58.960Z,94.90
2018-09-17T02:09:27.152Z,94.90
2018-09-17T02:11:55.430Z,94.40
2018-09-17T02:14:23.618Z,94.20
2018-09-17T02:16:51.810Z,94.30
2018-09-17T02:19:19.985Z,94.40
2018-09-17T02:21:48.183Z,94.30
2018-09-17T02:24:16.374Z,94.30
2018-09-17T02:26:44.575Z,94.40
2018-09-17T02:29:12.742Z,94.30
2018-09-17T02:31:40.939Z,94.50
2018-09-17T02:34:09.118Z,94.40
2018-09-17T02:36:37.294Z,94.60
2018-09-17T02:39:06.702Z,94.70
2018-09-17T02:41:34.884Z,94.70
2018-09-17T02:44:03.051Z,94.50
2018-09-17T02:46:31.443Z,94.20
2018-09-17T02:48:59.599Z,94.50
2018-09-17T02:51:27.754Z,94.50
2018-09-17T02:53:55.914Z,94.10
2018-09-17T02:56:24.082Z,94.10
2018-09-17T02:58:52.706Z,94.30
2018-09-17T03:01:20.903Z,94.40
2018-09-17T03:03:49.378Z,94.40
2018-09-17T03:06:17.519Z,94.40
2018-09-17T03:08:45.686Z,94.30
2018-09-17T03:11:13.842Z,94.50
2018-09-17T03:13:42.056Z,94.50
2018-09-17T03:16:10.256Z,94.50
2018-09-17T03:18:50.668Z,94.40
2018-09-17T03:21:18.819Z,94.40
2018-09-17T03:23:46.978Z,94.40
2018-09-17T03:26:15.135Z,94.40
2018-09-17T03:28:43.587Z,94.30
2018-09-17T03:31:11.740Z,94.20
2018-09-17T03:33:39.902Z,94.30
2018-09-17T03:36:08.095Z,94.20
2018-09-17T03:38:43.263Z,94.40
2018-09-17T03:41:12.226Z,94.40
2018-09-17T03:43:41.686Z,94.50
2018-09-17T03:46:09.954Z,94.50
2018-09-17T03:48:39.007Z,94.50
2018-09-17T03:51:07.898Z,94.40
2018-09-17T03:53:36.474Z,94.30
2018-09-17T03:56:04.994Z,94.30
2018-09-17T03:58:33.674Z,94.30
2018-09-17T04:01:02.631Z,94.40
2018-09-17T04:03:30.851Z,94.40
2018-09-17T04:05:59.282Z,94.50
2018-09-17T04:08:28.778Z,94.80
2018-09-17T04:10:56.963Z,94.60
2018-09-17T04:13:25.167Z,94.80
2018-09-17T04:15:53.861Z,94.40
2018-09-17T04:18:22.066Z,94.60
2018-09-17T04:20:50.292Z,94.60
2018-09-17T04:23:25.035Z,94.50
2018-09-17T04:25:53.213Z,94.50
2018-09-17T04:28:21.406Z,94.70
2018-09-17T04:30:49.644Z,94.80
2018-09-17T04:33:17.830Z,94.70
2018-09-17T04:35:46.287Z,94.90
2018-09-17T04:38:14.470Z,94.70
2018-09-17T04:40:42.650Z,94.40
2018-09-17T04:43:10.851Z,94.40
2018-09-17T04:45:39.363Z,94.30
2018-09-17T04:48:07.564Z,94.40
2018-09-17T04:50:35.746Z,94.80
2018-09-17T04:53:03.964Z,94.60
2018-09-17T04:55:32.192Z,94.50
2018-09-17T04:58:00.391Z,94.60
2018-09-17T05:00:28.598Z,94.30
2018-09-17T05:02:56.923Z,94.20
2018-09-17T05:05:25.266Z,94.60
2018-09-17T05:07:53.450Z,94.20
2018-09-17T05:10:21.637Z,94.40
2018-09-17T05:12:49.819Z,94.70
2018-09-17T05:15:18.003Z,94.40
2018-09-17T05:17:46.183Z,94.50
2018-09-17T05:20:14.375Z,94.40
2018-09-17T05:22:42.820Z,94.40
2018-09-17T05:25:11.002Z,94.40
2018-09-17T05:27:39.210Z,94.60
2018-09-17T05:30:07.497Z,94.80
2018-09-17T05:32:35.666Z,94.90
2018-09-17T05:35:03.963Z,95.10
2018-09-17T05:37:32.111Z,94.90
2018-09-17T05:40:00.303Z,94.80
2018-09-17T05:42:28.486Z,94.80
2018-09-17T05:44:56.919Z,94.90
2018-09-17T05:47:25.111Z,95.00
2018-09-17T05:49:53.299Z,94.90
2018-09-17T05:52:21.482Z,94.90
2018-09-17T05:54:49.674Z,95.00
2018-09-17T05:57:17.865Z,94.90
2018-09-17T05:59:46.091Z,95.00
2018-09-17T06:02:14.278Z,95.20
2018-09-17T06:04:42.776Z,95.30
2018-09-17T06:07:11.037Z,95.30
2018-09-17T06:09:39.268Z,95.40
2018-09-17T06:12:07.399Z,95.40
2018-09-17T06:14:35.639Z,95.30
2018-09-17T06:17:03.779Z,95.00
2018-09-17T06:19:31.970Z,94.90
2018-09-17T06:22:00.154Z,94.80
2018-09-17T06:24:28.346Z,95.00
2018-09-17T06:26:56.798Z,95.10
2018-09-17T06:29:24.982Z,95.10
2018-09-17T06:31:53.170Z,95.40
2018-09-17T06:34:21.347Z,95.10
2018-09-17T06:36:49.515Z,95.10
2018-09-17T06:39:17.674Z,95.10
2018-09-17T06:41:45.843Z,95.00
2018-09-17T06:44:14.111Z,95.00
2018-09-17T06:46:42.298Z,95.00
2018-09-17T06:49:10.486Z,94.90
2018-09-17T06:51:38.676Z,94.90
2018-09-17T06:54:06.988Z,94.50
2018-09-17T06:56:35.137Z,94.50
2018-09-17T06:59:03.301Z,94.50
2018-09-17T07:01:31.462Z,94.40
2018-09-17T07:03:59.617Z,94.20
2018-09-17T07:06:27.782Z,93.80
2018-09-17T07:08:55.933Z,94.00
2018-09-17T07:11:24.162Z,93.40
2018-09-17T07:13:52.310Z,93.10
2018-09-17T07:16:20.475Z,93.30
2018-09-17T07:18:48.626Z,92.80
2018-09-17T07:21:16.794Z,92.60
2018-09-17T07:23:44.974Z,92.50
2018-09-17T07:26:13.126Z,92.60
2018-09-17T07:28:41.325Z,92.70
2018-09-17T07:31:09.525Z,92.50
2018-09-17T07:33:37.683Z,92.10
2018-09-17T07:36:05.864Z,92.10
2018-09-17T07:38:34.007Z,92.20
2018-09-17T07:41:02.175Z,92.20
2018-09-17T07:43:30.340Z,91.70
2018-09-17T07:45:58.503Z,91.00
2018-09-17T07:48:26.653Z,90.40
2018-09-17T07:50:55.031Z,90.90
2018-09-17T07:53:23.191Z,90.20
2018-09-17T07:55:51.349Z,89.90
2018-09-17T07:58:19.858Z,88.50
2018-09-17T08:00:48.430Z,89.60
2018-09-17T08:03:16.590Z,89.10
2018-09-17T08:05:44.942Z,86.80
2018-09-17T08:08:13.139Z,88.50
2018-09-17T08:10:41.624Z,88.70
2018-09-17T08:13:09.995Z,88.50
2018-09-17T08:15:38.851Z,88.00
2018-09-17T08:18:07.000Z,86.70
2018-09-17T08:20:35.306Z,87.80
2018-09-17T08:23:03.466Z,87.60
2018-09-17T08:25:31.943Z,87.20
2018-09-17T08:28:00.041Z,88.40
2018-09-17T08:30:28.189Z,84.80
2018-09-17T08:32:56.339Z,87.10
2018-09-17T08:35:24.575Z,86.60
2018-09-17T08:37:52.767Z,86.00
2018-09-17T08:40:20.990Z,86.30
2018-09-17T08:42:49.166Z,83.50
2018-09-17T08:45:17.350Z,83.40
2018-09-17T08:47:45.573Z,83.90
2018-09-17T08:50:13.816Z,82.90
2018-09-17T08:52:42.052Z,83.20
2018-09-17T08:55:11.158Z,83.70
2018-09-17T08:57:40.970Z,83.20
2018-09-17T09:00:14.619Z,81.30
2018-09-17T09:02:48.299Z,81.10
2018-09-17T09:05:21.850Z,81.70
2018-09-17T09:07:55.265Z,82.50
2018-09-17T09:10:28.930Z,80.70
2018-09-17T09:13:02.687Z,81.80
2018-09-17T09:15:36.571Z,79.80
2018-09-17T09:18:06.118Z,81.10
2018-09-17T09:20:34.455Z,80.20
2018-09-17T09:23:02.638Z,78.50
2018-09-17T09:25:30.898Z,78.00
2018-09-17T09:27:59.118Z,77.40
2018-09-17T09:30:27.578Z,77.50
2018-09-17T09:32:55.762Z,79.20
2018-09-17T09:35:24.105Z,76.70
2018-09-17T09:37:52.796Z,76.90
2018-09-17T09:40:21.063Z,76.30
2018-09-17T09:42:49.246Z,74.80
2018-09-17T09:45:17.610Z,75.20
2018-09-17T09:47:46.910Z,75.20
2018-09-17T09:50:15.103Z,75.90
2018-09-17T09:52:43.337Z,77.30
2018-09-17T09:55:11.661Z,74.50
2018-09-17T09:57:39.859Z,73.20
2018-09-17T10:00:14.503Z,72.30
2018-09-17T10:02:51.983Z,72.90
2018-09-17T10:05:20.513Z,72.90
2018-09-17T10:07:48.697Z,73.10
2018-09-17T10:10:22.424Z,73.40
2018-09-17T10:12:56.079Z,73.30
2018-09-17T10:15:29.759Z,72.40
2018-09-17T10:18:03.741Z,70.30
2018-09-17T10:20:31.959Z,72.10
2018-09-17T10:23:00.172Z,71.70
2018-09-17T10:25:28.362Z,71.60
2018-09-17T10:27:56.551Z,71.70
2018-09-17T10:30:24.741Z,69.40
2018-09-17T10:32:52.919Z,68.90
2018-09-17T10:35:21.083Z,67.50
2018-09-17T10:37:49.239Z,70.60
2018-09-17T10:40:17.715Z,68.70
2018-09-17T10:42:45.867Z,67.70
2018-09-17T10:45:14.035Z,65.60
2018-09-17T10:47:42.186Z,65.80
2018-09-17T10:50:10.358Z,64.90
2018-09-17T10:52:38.826Z,65.60
2018-09-17T10:55:06.994Z,65.30
2018-09-17T10:57:35.147Z,63.80
2018-09-17T11:00:03.306Z,62.30
2018-09-17T11:02:31.648Z,62.20
2018-09-17T11:04:59.842Z,65.10
2018-09-17T11:07:28.182Z,63.40
2018-09-17T11:09:56.331Z,61.40
2018-09-17T11:12:24.479Z,61.20
2018-09-17T11:14:53.042Z,60.80
2018-09-17T11:17:21.272Z,60.10
2018-09-17T11:19:49.338Z,59.30
2018-09-17T11:22:17.487Z,62.00
2018-09-17T11:24:45.695Z,62.40
2018-09-17T11:27:13.843Z,62.30
2018-09-17T11:29:42.242Z,61.10
2018-09-17T11:32:10.954Z,59.70
2018-09-17T11:34:39.111Z,62.10
2018-09-17T11:37:07.622Z,63.70
2018-09-17T11:39:35.808Z,63.30
2018-09-17T11:42:03.984Z,60.80
2018-09-17T11:44:32.126Z,59.50
2018-09-17T11:47:00.307Z,58.80
2018-09-17T11:49:28.434Z,59.70
2018-09-17T11:51:56.591Z,57.90
2018-09-17T11:54:24.744Z,58.40
2018-09-17T11:56:52.898Z,59.20
2018-09-17T11:59:21.050Z,60.30
2018-09-17T12:01:55.496Z,59.20
2018-09-17T12:04:29.174Z,57.20
2018-09-17T12:07:02.974Z,57.30
2018-09-17T12:09:31.140Z,57.20
2018-09-17T12:11:59.329Z,56.20
2018-09-17T12:14:27.510Z,56.30
2018-09-17T12:16:55.671Z,55.80
2018-09-17T12:19:23.819Z,56.80
2018-09-17T12:21:52.290Z,56.90
2018-09-17T12:24:20.723Z,57.30
2018-09-17T12:26:48.879Z,55.60
2018-09-17T12:29:17.022Z,56.30
2018-09-17T12:31:45.178Z,54.70
2018-09-17T12:34:13.335Z,54.90
2018-09-17T12:36:41.494Z,55.70
2018-09-17T12:39:10.631Z,56.80
2018-09-17T12:41:38.792Z,54.30
2018-09-17T12:44:06.934Z,52.30
2018-09-17T12:46:35.111Z,55.00
2018-09-17T12:49:03.283Z,56.80
2018-09-17T12:51:31.464Z,52.70
2018-09-17T12:53:59.770Z,54.10
2018-09-17T12:56:27.926Z,52.30
2018-09-17T12:58:56.082Z,53.50
2018-09-17T13:01:24.234Z,54.20
2018-09-17T13:03:52.387Z,52.20
2018-09-17T13:06:20.543Z,52.30
2018-09-17T13:08:48.704Z,51.50
2018-09-17T13:11:16.850Z,50.00
2018-09-17T13:13:45.010Z,53.00
2018-09-17T13:16:13.176Z,49.90
2018-09-17T13:18:41.335Z,48.60
2018-09-17T13:21:09.574Z,51.50
2018-09-17T13:23:37.870Z,51.40
2018-09-17T13:26:06.080Z,49.60
2018-09-17T13:28:34.280Z,48.50
2018-09-17T13:31:02.443Z,52.90
2018-09-17T13:33:30.611Z,48.90
2018-09-17T13:35:58.770Z,49.50
2018-09-17T13:38:26.933Z,50.40
2018-09-17T13:40:55.078Z,50.00
2018-09-17T13:43:23.329Z,49.70
2018-09-17T13:45:51.751Z,48.60
2018-09-17T13:48:20.122Z,48.60
2018-09-17T13:50:48.266Z,46.70
2018-09-17T13:53:16.440Z,46.10
2018-09-17T13:55:44.572Z,48.30
2018-09-17T13:58:12.737Z,47.40
2018-09-17T14:00:40.925Z,46.40
2018-09-17T14:03:09.079Z,47.20
2018-09-17T14:05:37.263Z,48.30
2018-09-17T14:08:05.607Z,47.80
2018-09-17T14:10:33.775Z,46.10
2018-09-17T14:13:01.963Z,48.30
2018-09-17T14:15:30.095Z,50.10
2018-09-17T14:17:58.263Z,48.70
2018-09-17T14:20:26.405Z,50.20
2018-09-17T14:22:54.605Z,47.80
2018-09-17T14:25:22.744Z,48.20
2018-09-17T14:27:50.895Z,50.40
2018-09-17T14:30:19.069Z,50.00
2018-09-17T14:32:52.687Z,48.70
2018-09-17T14:35:20.794Z,47.60
2018-09-17T14:37:49.174Z,48.30
2018-09-17T14:40:17.369Z,48.50
2018-09-17T14:42:46.011Z,50.90
2018-09-17T14:45:14.592Z,49.90
2018-09-17T14:47:42.807Z,51.50
2018-09-17T14:50:10.981Z,50.40
2018-09-17T14:52:39.343Z,50.30
2018-09-17T14:55:07.506Z,50.00
2018-09-17T14:57:36.765Z,54.20
2018-09-17T15:00:05.482Z,55.50
2018-09-17T15:02:34.733Z,53.40
2018-09-17T15:05:03.529Z,55.20
2018-09-17T15:07:31.753Z,53.40
2018-09-17T15:10:00.515Z,53.70
2018-09-17T15:12:28.862Z,51.80
2018-09-17T15:14:56.961Z,54.30
2018-09-17T15:17:25.275Z,52.30
2018-09-17T15:19:53.525Z,54.10
2018-09-17T15:22:21.982Z,54.70
2018-09-17T15:24:50.626Z,54.10
2018-09-17T15:27:18.806Z,55.40
2018-09-17T15:29:47.010Z,56.70
2018-09-17T15:32:15.227Z,56.60
2018-09-17T15:34:43.394Z,55.50
2018-09-17T15:37:11.810Z,55.70
2018-09-17T15:39:40.018Z,58.40
2018-09-17T15:42:08.623Z,58.80
2018-09-17T15:44:37.152Z,58.20
2018-09-17T15:47:05.696Z,57.30
2018-09-17T15:49:33.878Z,57.20
2018-09-17T15:52:02.104Z,57.30
2018-09-17T15:54:30.324Z,58.20
2018-09-17T15:56:58.510Z,58.70
2018-09-17T15:59:26.689Z,58.50
2018-09-17T16:01:54.878Z,59.60
2018-09-17T16:04:23.063Z,59.80
2018-09-17T16:06:51.842Z,59.00
2018-09-17T16:09:20.246Z,60.00
2018-09-17T16:11:48.434Z,59.70
2018-09-17T16:14:16.633Z,60.60
2018-09-17T16:16:44.847Z,60.60
2018-09-17T16:19:13.143Z,60.50
2018-09-17T16:21:41.323Z,61.20
2018-09-17T16:24:09.503Z,62.20
2018-09-17T16:26:37.699Z,63.90
2018-09-17T16:29:06.039Z,63.20
2018-09-17T16:31:34.240Z,64.30
2018-09-17T16:34:02.447Z,62.20
2018-09-17T16:36:30.854Z,62.90
2018-09-17T16:38:59.230Z,64.60
2018-09-17T16:41:27.385Z,65.20
2018-09-17T16:43:55.534Z,65.50
2018-09-17T16:46:23.685Z,66.50
2018-09-17T16:48:51.834Z,66.60
2018-09-17T16:51:20.027Z,67.00
2018-09-17T16:53:48.254Z,67.30
2018-09-17T16:56:16.331Z,67.60
2018-09-17T16:58:44.497Z,69.80
2018-09-17T17:01:12.634Z,69.80
2018-09-17T17:03:40.798Z,69.70
2018-09-17T17:06:08.966Z,70.10
2018-09-17T17:08:37.126Z,71.80
2018-09-17T17:11:05.336Z,71.90
2018-09-17T17:13:33.503Z,71.90
2018-09-17T17:16:01.703Z,72.80
2018-09-17T17:18:29.827Z,71.20
2018-09-17T17:20:58.007Z,73.50
2018-09-17T17:23:26.190Z,73.30
2018-09-17T17:25:54.339Z,74.90
2018-09-17T17:28:22.502Z,74.40
2018-09-17T17:30:50.666Z,74.50
2018-09-17T17:33:18.966Z,76.50
2018-09-17T17:35:47.119Z,75.90
2018-09-17T17:38:15.303Z,76.60
2018-09-17T17:40:43.577Z,76.40
2018-09-17T17:43:11.717Z,76.00
2018-09-17T17:45:39.951Z,77.40
2018-09-17T17:48:08.150Z,77.70
2018-09-17T17:50:36.330Z,77.50
2018-09-17T17:53:04.530Z,77.60
2018-09-17T17:55:32.706Z,78.40
2018-09-17T17:58:00.940Z,80.00
2018-09-17T18:00:29.079Z,80.00
2018-09-17T18:02:57.250Z,80.30
2018-09-17T18:05:25.422Z,80.00
2018-09-17T18:07:53.803Z,80.40
2018-09-17T18:10:22.114Z,81.10
2018-09-17T18:12:50.607Z,81.00
2018-09-17T18:15:18.925Z,80.90
2018-09-17T18:17:47.321Z,81.00
2018-09-17T18:20:16.010Z,81.10
2018-09-17T18:22:45.252Z,81.50
2018-09-17T18:25:13.858Z,81.80
2018-09-17T18:27:42.099Z,81.90
2018-09-17T18:30:10.403Z,82.00
2018-09-17T18:32:38.630Z,82.50
2018-09-17T18:35:07.023Z,83.20
2018-09-17T18:37:35.311Z,82.60
2018-09-17T18:40:03.528Z,83.20
2018-09-17T18:42:32.241Z,83.70
2018-09-17T18:45:01.134Z,84.10
2018-09-17T18:47:29.555Z,83.70
2018-09-17T18:49:58.663Z,84.10
2018-09-17T18:52:26.982Z,84.20
2018-09-17T18:54:55.803Z,84.70
2018-09-17T18:57:24.221Z,85.00
2018-09-17T18:59:53.100Z,85.30
2018-09-17T19:02:21.504Z,85.50
2018-09-17T19:04:49.875Z,85.60
2018-09-17T19:07:18.648Z,86.10
2018-09-17T19:09:48.880Z,85.80
2018-09-17T19:12:18.334Z,86.50
2018-09-17T19:14:51.936Z,86.60
2018-09-17T19:17:25.640Z,86.80
2018-09-17T19:19:54.504Z,86.90
2018-09-17T19:22:28.014Z,87.00
2018-09-17T19:24:56.296Z,87.20
2018-09-17T19:27:29.791Z,87.30
2018-09-17T19:29:58.182Z,87.30
2018-09-17T19:32:26.528Z,87.60
2018-09-17T19:34:54.955Z,87.70
2018-09-17T19:37:28.894Z,88.00
2018-09-17T19:40:04.304Z,87.80
2018-09-17T19:42:32.832Z,87.70
2018-09-17T19:45:07.043Z,88.00
2018-09-17T19:47:35.436Z,87.90
2018-09-17T19:50:08.220Z,87.70
2018-09-17T19:52:36.535Z,87.30
2018-09-17T19:55:04.840Z,87.50
2018-09-17T19:58:41.974Z,87.70
2018-09-17T20:01:10.268Z,88.10
2018-09-17T20:03:38.541Z,88.10
2018-09-17T20:06:12.263Z,88.50
2018-09-17T20:08:40.419Z,88.30
2018-09-17T20:11:08.606Z,88.50
2018-09-17T20:13:37.264Z,88.70
2018-09-17T20:16:05.506Z,88.90
2018-09-17T20:18:34.030Z,88.90
2018-09-17T20:21:02.266Z,88.70
2018-09-17T20:23:30.527Z,89.30
2018-09-17T20:25:58.706Z,89.30
2018-09-17T20:28:27.960Z,89.60
2018-09-17T20:30:56.571Z,89.60
2018-09-17T20:33:28.247Z,89.60
2018-09-17T20:35:56.448Z,89.30
2018-09-17T20:38:24.801Z,89.70
2018-09-17T20:40:52.919Z,89.40
2018-09-17T20:43:21.138Z,90.00
2018-09-17T20:45:49.768Z,89.80
2018-09-17T20:48:18.099Z,89.90
2018-09-17T20:50:46.295Z,89.80
2018-09-17T20:53:14.479Z,89.80
2018-09-17T20:55:42.816Z,90.00
2018-09-17T20:58:10.919Z,89.80
2018-09-17T21:00:39.143Z,90.00
2018-09-17T21:03:07.343Z,90.10
2018-09-17T21:05:35.548Z,90.20
2018-09-17T21:08:03.756Z,90.00
2018-09-17T21:10:31.953Z,90.00
2018-09-17T21:13:00.645Z,90.10
2018-09-17T21:15:28.806Z,90.10
2018-09-17T21:17:57.124Z,90.20
2018-09-17T21:20:25.349Z,90.30
2018-09-17T21:22:53.543Z,90.40
2018-09-17T21:25:21.987Z,90.50
2018-09-17T21:27:50.284Z,90.50
2018-09-17T21:30:18.471Z,90.40
2018-09-17T21:32:46.655Z,90.50
2018-09-17T21:35:14.861Z,90.50
2018-09-17T21:37:43.018Z,90.50
2018-09-17T21:40:11.239Z,90.50
2018-09-17T21:42:39.408Z,90.60
2018-09-17T21:45:08.811Z,90.40
2018-09-17T21:47:36.983Z,90.70
2018-09-17T21:50:05.286Z,90.70
2018-09-17T21:52:33.561Z,90.70
2018-09-17T21:55:01.761Z,90.80
2018-09-17T21:57:30.027Z,90.70
2018-09-17T21:59:58.229Z,90.80
2018-09-17T22:02:26.710Z,90.80
2018-09-17T22:04:54.975Z,90.80
2018-09-17T22:07:24.318Z,90.80
2018-09-17T22:09:52.705Z,91.00
2018-09-17T22:12:21.402Z,91.00
2018-09-17T22:14:50.515Z,91.00
2018-09-17T22:17:18.772Z,91.10
2018-09-17T22:19:47.058Z,91.10
2018-09-17T22:22:15.325Z,91.00
2018-09-17T22:24:43.534Z,91.00
2018-09-17T22:27:11.860Z,91.00
2018-09-17T22:29:40.086Z,91.10
2018-09-17T22:32:08.263Z,91.20
2018-09-17T22:34:36.727Z,91.10
2018-09-17T22:37:05.227Z,91.20
2018-09-17T22:39:33.383Z,91.10
2018-09-17T22:42:01.561Z,91.30
2018-09-17T22:44:29.715Z,91.30
2018-09-17T22:46:57.878Z,91.30
2018-09-17T22:49:26.042Z,91.40
2018-09-17T22:51:54.208Z,91.30
2018-09-17T22:54:22.375Z,91.20
2018-09-17T22:56:50.588Z,91.30
2018-09-17T22:59:18.763Z,91.30
2018-09-17T23:01:46.957Z,91.30
2018-09-17T23:04:15.119Z,91.40
2018-09-17T23:06:43.287Z,91.20
2018-09-17T23:09:11.807Z,91.30
2018-09-17T23:11:39.975Z,91.30
2018-09-17T23:14:08.139Z,91.50
2018-09-17T23:16:36.545Z,91.40
2018-09-17T23:19:05.035Z,91.30
2018-09-17T23:21:33.199Z,91.50
2018-09-17T23:24:01.391Z,91.50
2018-09-17T23:26:29.787Z,91.60
2018-09-17T23:28:57.984Z,91.50
2018-09-17T23:31:26.189Z,91.50
2018-09-17T23:33:54.372Z,91.40
2018-09-17T23:36:22.530Z,91.40
2018-09-17T23:38:50.702Z,91.50
2018-09-17T23:41:18.877Z,91.60
2018-09-17T23:43:47.042Z,91.50
2018-09-17T23:46:15.242Z,91.50
2018-09-17T23:48:43.411Z,91.50
2018-09-17T23:51:11.574Z,91.70
2018-09-17T23:53:39.791Z,91.60
2018-09-17T23:56:07.951Z,91.50
2018-09-17T23:58:36.118Z,91.60
